createdAt,value
2023-03-30T00:00:48.209Z,9.17
2023-03-30T00:04:53.069Z,9.17
2023-03-30T00:08:58.205Z,9.17
2023-03-30T00:13:03.041Z,9.18
2023-03-30T00:17:07.280Z,9.18
2023-03-30T00:21:11.515Z,9.18
2023-03-30T00:25:16.352Z,9.19
2023-03-30T00:29:21.365Z,9.20
2023-03-30T00:33:37.236Z,9.20
2023-03-30T00:37:49.936Z,9.21
2023-03-30T00:41:52.953Z,9.22
2023-03-30T00:45:59.179Z,9.24
2023-03-30T00:50:02.390Z,9.22
2023-03-30T00:54:12.589Z,9.21
2023-03-30T00:58:17.950Z,9.22
2023-03-30T01:02:23.887Z,9.23
2023-03-30T01:06:30.290Z,9.24
2023-03-30T01:10:33.617Z,9.26
2023-03-30T01:14:37.279Z,9.27
2023-03-30T01:18:56.035Z,9.27
2023-03-30T01:23:19.680Z,9.28
2023-03-30T01:27:51.447Z,9.26
2023-03-30T01:32:17.116Z,9.24
2023-03-30T01:37:01.698Z,9.19
2023-03-30T01:41:14.445Z,9.16
2023-03-30T01:45:29.534Z,9.14
2023-03-30T01:49:41.221Z,9.10
2023-03-30T01:53:51.409Z,9.07
2023-03-30T01:58:01.867Z,9.04
2023-03-30T02:02:07.638Z,9.00
2023-03-30T02:06:18.693Z,8.99
2023-03-30T02:10:25.323Z,8.96
2023-03-30T02:14:34.671Z,8.93
2023-03-30T02:18:39.126Z,8.90
2023-03-30T02:22:42.773Z,8.87
2023-03-30T02:26:47.381Z,8.85
2023-03-30T02:30:51.720Z,8.83
2023-03-30T02:35:19.150Z,8.80
2023-03-30T02:39:29.887Z,8.79
2023-03-30T02:43:43.216Z,8.77
2023-03-30T02:47:57.761Z,8.79
2023-03-30T02:52:10.669Z,8.83
2023-03-30T02:56:19.385Z,8.89
2023-03-30T03:00:27.111Z,8.91
2023-03-30T03:04:34.225Z,8.91
2023-03-30T03:08:41.437Z,8.93
2023-03-30T03:12:46.874Z,8.94
2023-03-30T03:16:50.412Z,8.90
2023-03-30T03:20:54.666Z,8.89
2023-03-30T03:24:57.925Z,8.86
2023-03-30T03:29:00.884Z,8.88
2023-03-30T03:33:04.515Z,8.89
2023-03-30T03:37:09.136Z,8.91
2023-03-30T03:41:12.961Z,8.92
2023-03-30T03:45:15.905Z,8.93
2023-03-30T03:49:18.956Z,8.92
2023-03-30T03:53:24.179Z,8.91
2023-03-30T03:57:28.079Z,8.89
2023-03-30T04:01:31.607Z,8.88
2023-03-30T04:05:35.337Z,8.87
2023-03-30T04:09:39.782Z,8.86
2023-03-30T04:13:43.121Z,8.86
2023-03-30T04:17:49.959Z,8.87
2023-03-30T04:21:53.375Z,8.89
2023-03-30T04:25:58.188Z,8.92
2023-03-30T04:30:02.926Z,8.95
2023-03-30T04:34:06.055Z,8.95
2023-03-30T04:38:09.294Z,8.95
2023-03-30T04:42:15.646Z,8.95
2023-03-30T04:46:19.838Z,8.95
2023-03-30T04:50:22.891Z,8.92
2023-03-30T04:54:26.149Z,8.92
2023-03-30T04:58:30.668Z,8.90
2023-03-30T05:02:33.893Z,8.87
2023-03-30T05:06:36.923Z,8.85
2023-03-30T05:10:40.088Z,8.84
2023-03-30T05:14:44.380Z,8.82
2023-03-30T05:18:49.423Z,8.80
2023-03-30T05:22:54.642Z,8.79
2023-03-30T05:26:58.573Z,8.77
2023-03-30T05:31:03.309Z,8.76
2023-03-30T05:35:07.850Z,8.75
2023-03-30T05:39:10.907Z,8.73
2023-03-30T05:43:15.717Z,8.72
2023-03-30T05:47:22.111Z,8.74
2023-03-30T05:51:26.156Z,8.76
2023-03-30T05:55:29.762Z,8.79
2023-03-30T05:59:33.700Z,8.89
2023-03-30T06:03:39.310Z,8.99
2023-03-30T06:07:42.911Z,9.11
2023-03-30T06:11:45.986Z,9.25
2023-03-30T06:15:50.028Z,9.42
2023-03-30T06:19:54.455Z,9.61
2023-03-30T06:23:57.586Z,9.80
2023-03-30T06:28:00.939Z,10.07
2023-03-30T06:32:05.220Z,10.33
2023-03-30T06:36:14.509Z,10.72
2023-03-30T06:40:18.072Z,11.09
2023-03-30T06:44:21.306Z,11.48
2023-03-30T06:48:25.698Z,11.83
2023-03-30T06:52:30.858Z,12.23
2023-03-30T06:56:34.023Z,12.65
2023-03-30T07:00:37.399Z,13.07
2023-03-30T07:04:40.852Z,13.44
2023-03-30T07:08:45.289Z,13.75
2023-03-30T07:12:48.862Z,13.97
2023-03-30T07:16:53.198Z,14.08
2023-03-30T07:21:01.672Z,14.12
2023-03-30T07:25:07.631Z,14.06
2023-03-30T07:29:10.829Z,13.97
2023-03-30T07:33:14.893Z,13.86
2023-03-30T07:37:20.427Z,13.75
2023-03-30T07:41:25.294Z,13.67
2023-03-30T07:45:29.453Z,13.59
2023-03-30T07:49:32.848Z,13.54
2023-03-30T07:53:37.754Z,13.49
2023-03-30T07:57:42.367Z,13.49
2023-03-30T08:01:45.664Z,13.51
2023-03-30T08:05:54.033Z,13.57
2023-03-30T08:09:57.586Z,13.59
2023-03-30T08:14:02.004Z,13.65
2023-03-30T08:18:08.497Z,13.68
2023-03-30T08:22:11.489Z,13.70
2023-03-30T08:26:15.178Z,13.66
2023-03-30T08:30:19.549Z,13.59
2023-03-30T08:34:22.698Z,13.52
2023-03-30T08:38:25.910Z,13.45
2023-03-30T08:43:05.316Z,13.38
2023-03-30T08:47:14.777Z,13.26
2023-03-30T08:51:25.396Z,13.13
2023-03-30T08:55:33.654Z,12.99
2023-03-30T08:59:45.050Z,12.86
2023-03-30T09:04:03.460Z,12.79
2023-03-30T09:08:13.789Z,12.74
2023-03-30T09:12:23.835Z,12.68
2023-03-30T09:16:37.116Z,12.63
2023-03-30T09:20:45.555Z,12.59
2023-03-30T09:24:52.156Z,12.59
2023-03-30T09:29:03.780Z,12.68
2023-03-30T09:33:16.047Z,12.84
2023-03-30T09:37:21.859Z,13.03
2023-03-30T09:41:48.672Z,13.26
2023-03-30T09:45:52.673Z,13.47
2023-03-30T09:50:00.700Z,13.70
2023-03-30T09:54:07.358Z,13.85
2023-03-30T09:58:19.351Z,13.98
2023-03-30T10:02:22.933Z,14.18
2023-03-30T10:06:26.306Z,14.54
2023-03-30T10:10:35.201Z,15.08
2023-03-30T10:14:38.832Z,15.71
2023-03-30T10:18:43.882Z,16.31
2023-03-30T10:22:52.877Z,16.87
2023-03-30T10:27:00.886Z,17.41
2023-03-30T10:31:07.021Z,17.85
2023-03-30T10:35:11.702Z,18.26
2023-03-30T10:39:19.375Z,18.65
2023-03-30T10:43:29.145Z,18.92
2023-03-30T10:47:52.748Z,19.05
2023-03-30T10:52:05.423Z,19.06
2023-03-30T10:56:18.385Z,19.01
2023-03-30T11:00:49.887Z,18.90
2023-03-30T11:05:03.059Z,18.80
2023-03-30T11:09:11.092Z,18.66
2023-03-30T11:13:19.419Z,18.55
2023-03-30T11:17:30.571Z,18.42
2023-03-30T11:21:39.347Z,18.38
2023-03-30T11:25:54.644Z,18.45
2023-03-30T11:30:05.448Z,18.66
2023-03-30T11:34:20.514Z,18.92
2023-03-30T11:38:30.664Z,19.17
2023-03-30T11:42:33.864Z,19.39
2023-03-30T11:46:42.642Z,19.64
2023-03-30T11:51:01.466Z,19.83
2023-03-30T11:55:28.405Z,20.05
2023-03-30T11:59:45.229Z,20.24
2023-03-30T12:03:54.894Z,20.43
2023-03-30T12:08:09.724Z,20.66
2023-03-30T12:12:16.419Z,20.84
2023-03-30T12:16:28.201Z,20.98
2023-03-30T12:20:39.513Z,21.04
2023-03-30T12:24:52.141Z,21.06
2023-03-30T12:29:38.951Z,21.20
2023-03-30T12:33:28.854Z,21.47
2023-03-30T12:37:35.348Z,21.78
2023-03-30T12:41:48.758Z,22.14
2023-03-30T12:46:05.298Z,22.37
2023-03-30T12:50:18.115Z,22.35
2023-03-30T12:54:38.448Z,22.12
2023-03-30T12:58:59.714Z,21.88
2023-03-30T13:03:28.336Z,21.68
2023-03-30T13:07:36.651Z,21.57
2023-03-30T13:11:50.423Z,21.43
2023-03-30T13:15:58.648Z,21.29
2023-03-30T13:20:29.250Z,21.16
2023-03-30T13:24:44.971Z,21.08
2023-03-30T13:29:01.368Z,21.02
2023-03-30T13:33:20.311Z,21.00
2023-03-30T13:37:29.434Z,20.99
2023-03-30T13:41:42.215Z,20.96
2023-03-30T13:45:51.684Z,20.90
2023-03-30T13:50:00.780Z,20.78
2023-03-30T13:54:09.336Z,20.56
2023-03-30T13:58:17.900Z,20.31
2023-03-30T14:02:26.142Z,19.98
2023-03-30T14:06:34.470Z,19.62
2023-03-30T14:10:38.209Z,19.21
2023-03-30T14:14:47.166Z,18.80
2023-03-30T14:18:51.202Z,18.43
2023-03-30T14:22:58.517Z,18.07
2023-03-30T14:27:07.151Z,17.74
2023-03-30T14:31:15.014Z,17.45
2023-03-30T14:35:19.752Z,17.19
2023-03-30T14:39:25.408Z,16.99
2023-03-30T14:43:32.742Z,16.75
2023-03-30T14:47:36.551Z,16.53
2023-03-30T14:51:43.166Z,16.35
2023-03-30T14:55:48.466Z,16.08
2023-03-30T14:59:54.485Z,15.92
2023-03-30T15:03:58.545Z,15.73
2023-03-30T15:08:04.572Z,15.66
2023-03-30T15:12:09.647Z,15.56
2023-03-30T15:16:16.903Z,15.47
2023-03-30T15:20:20.497Z,15.41
2023-03-30T15:24:28.220Z,15.28
2023-03-30T15:28:36.492Z,15.27
2023-03-30T15:32:41.929Z,15.27
2023-03-30T15:36:45.668Z,15.24
2023-03-30T15:40:53.154Z,15.14
2023-03-30T15:45:05.211Z,15.08
2023-03-30T15:49:08.880Z,15.04
2023-03-30T15:53:18.993Z,15.04
2023-03-30T15:57:25.420Z,14.99
2023-03-30T16:05:34.275Z,15.02
2023-03-30T16:09:37.350Z,14.99
2023-03-30T16:13:45.826Z,14.92
2023-03-30T16:17:49.022Z,14.89
2023-03-30T16:21:53.846Z,14.87
2023-03-30T16:25:58.327Z,14.85
2023-03-30T16:30:01.502Z,14.84
2023-03-30T16:34:04.410Z,14.83
2023-03-30T16:38:09.062Z,14.80
2023-03-30T16:42:12.030Z,14.75
2023-03-30T16:46:16.425Z,14.75
2023-03-30T16:50:23.174Z,14.76
2023-03-30T16:54:32.412Z,14.73
2023-03-30T16:58:36.368Z,14.67
2023-03-30T17:02:39.825Z,14.58
2023-03-30T17:06:43.155Z,14.46
2023-03-30T17:10:47.844Z,14.49
2023-03-30T17:14:50.840Z,14.50
2023-03-30T17:18:54.021Z,14.42
2023-03-30T17:22:57.090Z,14.46
2023-03-30T17:27:02.113Z,14.42
2023-03-30T17:31:09.862Z,14.35
2023-03-30T17:35:14.648Z,14.30
2023-03-30T17:39:17.638Z,14.33
2023-03-30T17:43:22.358Z,14.30
2023-03-30T17:47:25.551Z,14.25
2023-03-30T17:51:28.736Z,14.19
2023-03-30T17:55:33.783Z,14.20
2023-03-30T17:59:41.398Z,14.15
2023-03-30T18:03:44.788Z,14.03
2023-03-30T18:07:48.947Z,14.00
2023-03-30T18:11:51.855Z,14.01
2023-03-30T18:15:58.063Z,13.97
2023-03-30T18:20:01.597Z,13.91
2023-03-30T18:24:05.458Z,13.98
2023-03-30T18:28:16.995Z,13.97
2023-03-30T18:32:22.004Z,13.96
2023-03-30T18:36:25.228Z,13.88
2023-03-30T18:40:32.794Z,13.87
2023-03-30T18:44:36.921Z,13.87
2023-03-30T18:48:41.917Z,13.84
2023-03-30T18:52:45.113Z,13.87
2023-03-30T18:56:50.026Z,13.84
2023-03-30T19:00:54.484Z,13.78
2023-03-30T19:05:00.114Z,13.80
2023-03-30T19:09:02.984Z,13.85
2023-03-30T19:13:07.340Z,13.86
2023-03-30T19:17:10.326Z,13.98
2023-03-30T19:21:17.005Z,14.09
2023-03-30T19:25:21.779Z,14.21
2023-03-30T19:29:25.071Z,14.26
2023-03-30T19:37:32.858Z,14.17
2023-03-30T19:41:35.933Z,14.09
2023-03-30T19:45:39.701Z,14.05
2023-03-30T19:49:42.639Z,14.02
2023-03-30T19:53:47.790Z,14.01
2023-03-30T19:57:51.044Z,14.02
2023-03-30T20:01:54.037Z,13.99
2023-03-30T20:05:57.880Z,13.98
2023-03-30T20:10:02.669Z,13.95
2023-03-30T20:14:06.315Z,13.90
2023-03-30T20:18:09.917Z,13.85
2023-03-30T20:22:12.902Z,13.80
2023-03-30T20:26:19.737Z,13.75
2023-03-30T20:30:22.937Z,13.74
2023-03-30T20:34:27.623Z,13.75
2023-03-30T20:38:30.521Z,13.75
2023-03-30T20:42:35.042Z,13.70
2023-03-30T20:46:38.425Z,13.64
2023-03-30T20:50:43.087Z,13.45
2023-03-30T20:54:48.885Z,13.24
2023-03-30T20:58:53.396Z,13.04
2023-03-30T21:02:56.579Z,12.82
2023-03-30T21:07:00.120Z,12.73
2023-03-30T21:11:03.828Z,12.51
2023-03-30T21:15:09.955Z,12.57
2023-03-30T21:19:13.607Z,12.51
2023-03-30T21:23:16.949Z,12.44
2023-03-30T21:27:19.880Z,12.38
2023-03-30T21:31:25.275Z,12.41
2023-03-30T21:35:28.199Z,12.37
2023-03-30T21:39:31.360Z,12.34
2023-03-30T21:43:36.877Z,12.28
2023-03-30T21:47:42.084Z,12.33
2023-03-30T21:51:45.066Z,12.37
2023-03-30T21:55:48.663Z,12.40
2023-03-30T21:59:51.609Z,12.43
2023-03-30T22:03:56.975Z,12.44
2023-03-30T22:08:00.285Z,12.38
2023-03-30T22:12:04.020Z,12.31
2023-03-30T22:16:09.740Z,12.23
2023-03-30T22:20:14.811Z,12.15
2023-03-30T22:24:18.425Z,12.08
2023-03-30T22:28:22.835Z,12.04
2023-03-30T22:32:26.039Z,12.03
2023-03-30T22:36:32.431Z,12.02
2023-03-30T22:40:36.791Z,12.01
2023-03-30T22:44:39.973Z,11.99
2023-03-30T22:48:45.327Z,11.98
2023-03-30T22:52:49.811Z,11.96
2023-03-30T22:56:52.857Z,11.92
2023-03-30T23:01:01.315Z,11.82
2023-03-30T23:05:04.636Z,11.74
2023-03-30T23:09:10.060Z,11.70
2023-03-30T23:13:14.082Z,11.63
2023-03-30T23:17:17.639Z,11.56
2023-03-30T23:21:22.408Z,11.48
2023-03-30T23:25:27.090Z,11.41
2023-03-30T23:29:30.628Z,11.35
2023-03-30T23:33:33.843Z,11.32
2023-03-30T23:37:37.054Z,11.27
2023-03-30T23:41:41.883Z,11.26
2023-03-30T23:45:45.077Z,11.22
2023-03-30T23:49:48.416Z,11.20
2023-03-30T23:53:54.582Z,11.17
2023-03-30T23:57:59.776Z,11.15
